createdAt,value
2023-03-16T00:12:25.719Z,1.24
2023-03-16T00:27:26.239Z,1.23
2023-03-16T00:42:25.764Z,0.56
2023-03-16T00:57:25.579Z,0.3
2023-03-16T01:12:26.131Z,0.18
2023-03-16T01:27:26.026Z,0.42
2023-03-16T01:42:25.698Z,0.44
2023-03-16T01:57:26.748Z,0.2
2023-03-16T02:12:26.072Z,0.17
2023-03-16T02:42:26.126Z,0
2023-03-16T03:27:25.486Z,0.04
2023-03-16T03:42:25.289Z,0
2023-03-16T03:57:25.729Z,0
2023-03-16T04:12:25.583Z,0.01
2023-03-16T04:27:26.240Z,0.22
2023-03-16T04:42:26.264Z,0.06
2023-03-16T04:57:26.150Z,0.41
2023-03-16T05:27:26.119Z,3.69
2023-03-16T05:42:25.640Z,11.06
2023-03-16T05:57:25.720Z,9.42
2023-03-16T06:12:25.782Z,0.88
2023-03-16T06:42:25.496Z,2.64
2023-03-16T06:57:26.284Z,1.04
2023-03-16T07:12:42.489Z,1.39
2023-03-16T07:27:28.535Z,3.48
2023-03-16T07:42:27.035Z,4.24
2023-03-16T08:12:26.471Z,0.41
2023-03-16T08:27:25.718Z,0.73
2023-03-16T08:57:25.966Z,5.08
2023-03-16T09:27:25.666Z,2.64
2023-03-16T09:42:26.026Z,10.19
2023-03-16T09:57:25.833Z,0.98
2023-03-16T10:12:25.448Z,3.78
2023-03-16T10:27:25.650Z,0.97
2023-03-16T10:42:25.750Z,0.02
2023-03-16T10:57:25.584Z,0
2023-03-16T11:12:25.748Z,0
2023-03-16T11:27:25.506Z,0
2023-03-16T11:57:25.943Z,0
2023-03-16T12:12:26.371Z,0
2023-03-16T12:27:26.120Z,0.01
2023-03-16T13:12:26.060Z,0
2023-03-16T13:27:26.023Z,0.04
2023-03-16T14:12:25.868Z,0.03
2023-03-16T14:27:25.271Z,0.06
2023-03-16T14:42:25.533Z,0.02
2023-03-16T14:57:26.037Z,0.02
2023-03-16T15:12:25.419Z,0.85
2023-03-16T15:42:26.090Z,0.22
2023-03-16T15:57:25.602Z,0.35
2023-03-16T16:42:25.559Z,1.6
2023-03-16T16:57:25.663Z,5.05
2023-03-16T17:12:25.976Z,1.78
2023-03-16T17:27:25.691Z,10.97
2023-03-16T17:42:25.720Z,33.94
2023-03-16T17:57:26.079Z,16.32
2023-03-16T18:12:25.914Z,25.44
2023-03-16T18:27:25.460Z,18.48
2023-03-16T18:42:25.638Z,16.58
2023-03-16T18:57:25.928Z,10.49
2023-03-16T19:12:25.686Z,14.57
2023-03-16T19:42:25.804Z,4.93
2023-03-16T19:57:25.945Z,6.8
2023-03-16T20:12:25.548Z,8.26
2023-03-16T20:42:25.937Z,18.17
2023-03-16T20:57:25.637Z,13.27
2023-03-16T21:27:25.567Z,1.44
2023-03-16T21:42:25.896Z,4.66
2023-03-16T21:57:26.056Z,13.06
2023-03-16T22:12:26.078Z,9.31
2023-03-16T22:42:25.641Z,11.46
2023-03-16T22:57:25.549Z,14.19
2023-03-16T23:12:25.738Z,2.42
2023-03-16T23:27:25.553Z,8.26
2023-03-16T23:42:25.963Z,5.84
2023-03-16T23:57:26.189Z,2.67
